Time;durP1;ratioP1;P1;durP2;ratioP2;P2;SDS_P1;SDS_P2;PMS_P1;PMS_P2;Temp;Humidity;BMP_temperature;BMP_pressure;BME280_temperature;BME280_humidity;BME280_pressure;Samples;Min_cycle;Max_cycle;Signal;HPM_P1;HPM_P2
2023/08/17 00:02:18;;;;;;;10.77;7.70;;;;;;;22.85;86.33;95273.56;5078039;28;20769;-77
2023/08/17 00:04:43;;;;;;;12.55;7.38;;;;;;;22.83;86.40;95281.06;5060180;28;20227;-76
2023/08/17 00:07:09;;;;;;;14.07;7.40;;;;;;;22.85;85.88;95279.72;5088580;28;20277;-77
2023/08/17 00:09:34;;;;;;;14.25;7.20;;;;;;;22.83;85.92;95275.72;5059204;28;20607;-76
2023/08/17 00:12:00;;;;;;;10.07;7.43;;;;;;;22.88;86.12;95278.38;5040997;28;20224;-75
2023/08/17 00:14:25;;;;;;;11.63;7.43;;;;;;;22.90;85.84;95277.06;5052129;28;20228;-76
2023/08/17 00:16:51;;;;;;;11.13;7.22;;;;;;;22.82;86.16;95271.44;5053975;28;20224;-77
2023/08/17 00:19:17;;;;;;;10.93;7.25;;;;;;;22.82;86.14;95274.91;5036838;28;20876;-77
2023/08/17 00:21:43;;;;;;;12.48;7.28;;;;;;;22.83;86.18;95276.53;5052182;28;20265;-76
2023/08/17 00:24:09;;;;;;;12.95;7.43;;;;;;;22.80;85.74;95274.38;5048703;28;20638;-76
2023/08/17 00:26:35;;;;;;;13.00;6.95;;;;;;;22.85;85.54;95273.56;5035972;28;20226;-76
2023/08/17 00:29:00;;;;;;;11.23;7.00;;;;;;;22.81;85.82;95272.50;5053485;28;20227;-75
2023/08/17 00:31:26;;;;;;;13.32;7.05;;;;;;;22.86;85.60;95280.50;5054627;28;20235;-76
2023/08/17 00:33:52;;;;;;;15.15;7.30;;;;;;;22.84;85.84;95274.63;5068739;28;20312;-77
2023/08/17 00:36:17;;;;;;;13.93;7.63;;;;;;;22.77;85.59;95277.56;5038058;28;20234;-77
2023/08/17 00:38:42;;;;;;;11.32;7.32;;;;;;;22.78;85.67;95273.84;5052701;28;20220;-75
2023/08/17 00:41:08;;;;;;;15.48;7.57;;;;;;;22.73;85.57;95271.97;5035932;28;20326;-78
2023/08/17 00:43:33;;;;;;;12.25;6.95;;;;;;;22.71;85.74;95268.75;5033351;28;20671;-77
2023/08/17 00:45:59;;;;;;;11.10;6.68;;;;;;;22.68;85.23;95271.16;5035339;28;20255;-76
2023/08/17 00:48:25;;;;;;;16.23;7.13;;;;;;;22.64;85.61;95270.88;5084490;28;20231;-77
2023/08/17 00:50:52;;;;;;;11.27;6.50;;;;;;;22.61;85.52;95274.09;5052797;28;20239;-76
2023/08/17 00:53:17;;;;;;;11.35;6.50;;;;;;;22.60;84.48;95271.66;5049359;28;20224;-76
2023/08/17 00:55:43;;;;;;;13.93;6.50;;;;;;;22.60;83.74;95267.13;5048281;28;20230;-77
2023/08/17 00:58:09;;;;;;;11.43;6.50;;;;;;;22.59;83.55;95262.06;5046249;28;20641;-77
2023/08/17 01:00:34;;;;;;;11.23;5.97;;;;;;;22.61;83.76;95260.75;5038911;28;20232;-75
2023/08/17 01:03:00;;;;;;;13.40;6.07;;;;;;;22.59;83.23;95257.50;5027961;28;20237;-71
2023/08/17 01:05:25;;;;;;;11.05;6.07;;;;;;;22.60;82.84;95258.31;5031961;28;20252;-71
2023/08/17 01:07:51;;;;;;;10.23;5.80;;;;;;;22.65;82.77;95256.50;5026571;28;20623;-70
2023/08/17 01:10:16;;;;;;;11.32;5.85;;;;;;;22.60;82.74;95267.13;4996883;28;20224;-71
2023/08/17 01:13:03;;;;;;;13.40;5.68;;;;;;;22.56;82.92;95260.72;5013429;28;20232;-71
2023/08/17 01:15:36;;;;;;;11.55;6.05;;;;;;;22.57;83.00;95254.31;5055351;28;20224;-71
2023/08/17 01:18:23;;;;;;;9.43;5.68;;;;;;;22.51;82.97;95260.72;5020828;28;20240;-76
2023/08/17 01:20:49;;;;;;;10.02;5.78;;;;;;;22.47;83.37;95262.31;5036179;28;20235;-76
2023/08/17 01:23:15;;;;;;;12.55;5.97;;;;;;;22.49;83.21;95262.84;5051592;28;20236;-76
2023/08/17 01:25:40;;;;;;;10.48;5.72;;;;;;;22.50;82.48;95263.63;5033243;28;20220;-76
2023/08/17 01:28:06;;;;;;;11.32;5.28;;;;;;;22.49;82.79;95254.03;5026919;28;20208;-77
2023/08/17 01:30:44;;;;;;;10.55;6.00;;;;;;;22.41;82.59;95258.03;5050700;28;20227;-77
2023/08/17 01:33:10;;;;;;;8.63;5.30;;;;;;;22.32;82.76;95254.28;5053131;28;20369;-77
2023/08/17 01:35:57;;;;;;;11.02;5.63;;;;;;;22.36;82.28;95254.53;5042558;28;20322;-76
2023/08/17 01:38:22;;;;;;;8.82;5.20;;;;;;;22.37;81.88;95248.97;5066364;28;20232;-76
2023/08/17 01:40:48;;;;;;;10.07;5.53;;;;;;;22.29;81.54;95246.00;5071538;28;20607;-77
2023/08/17 01:43:14;;;;;;;14.70;5.47;;;;;;;22.36;81.39;95258.03;5055077;28;20243;-76
2023/08/17 01:45:45;;;;;;;8.27;5.40;;;;;;;22.34;81.29;95252.16;5027017;28;20715;-75
2023/08/17 01:48:11;;;;;;;10.32;5.15;;;;;;;22.28;80.86;95253.22;5037229;28;20230;-78
2023/08/17 01:50:37;;;;;;;9.82;5.22;;;;;;;22.26;80.95;95255.31;5066711;28;20224;-77
2023/08/17 01:53:02;;;;;;;13.02;5.20;;;;;;;22.29;80.95;95252.13;5060260;28;20315;-71
2023/08/17 01:55:28;;;;;;;13.32;5.80;;;;;;;22.33;80.81;95257.75;5086016;28;20307;-71
2023/08/17 01:57:53;;;;;;;9.45;5.35;;;;;;;22.25;81.06;95248.41;5037505;28;20220;-73
2023/08/17 02:00:19;;;;;;;10.52;5.30;;;;;;;22.32;80.97;95254.28;5052883;28;20228;-77
2023/08/17 02:02:44;;;;;;;8.43;5.30;;;;;;;22.29;80.72;95254.81;5052290;28;20216;-76
2023/08/17 02:05:10;;;;;;;10.05;5.25;;;;;;;22.33;80.74;95253.19;5048902;28;20944;-75
2023/08/17 02:07:36;;;;;;;9.20;5.00;;;;;;;22.29;80.96;95246.81;5050084;28;20230;-77
2023/08/17 02:10:01;;;;;;;12.50;5.30;;;;;;;22.23;81.25;95255.88;5052298;28;20233;-76
2023/08/17 02:12:27;;;;;;;9.85;5.43;;;;;;;22.21;80.84;95254.53;5049150;28;20221;-76
2023/08/17 02:14:53;;;;;;;8.32;5.20;;;;;;;22.26;80.54;95257.22;5063508;28;20335;-76
2023/08/17 02:17:19;;;;;;;6.82;4.93;;;;;;;22.25;80.63;95258.25;5046652;28;20219;-76
2023/08/17 02:19:47;;;;;;;8.30;5.20;;;;;;;22.13;80.92;95253.19;5060998;28;20235;-76
2023/08/17 02:22:12;;;;;;;14.98;5.80;;;;;;;22.11;80.83;95253.41;5020224;28;20241;-76
2023/08/17 02:24:38;;;;;;;9.02;4.68;;;;;;;22.13;79.96;95245.97;5041867;28;20234;-77
2023/08/17 02:27:03;;;;;;;9.88;4.93;;;;;;;22.12;79.75;95248.91;5015806;28;20220;-76
2023/08/17 02:29:29;;;;;;;9.27;5.03;;;;;;;22.06;80.05;95256.09;5023638;28;20233;-76
2023/08/17 02:31:54;;;;;;;9.38;5.03;;;;;;;21.94;80.17;95252.06;5042069;28;20225;-76
2023/08/17 02:34:20;;;;;;;10.20;4.90;;;;;;;21.93;80.30;95245.91;5032897;28;20598;-76
2023/08/17 02:36:46;;;;;;;9.77;4.72;;;;;;;21.86;80.21;95244.56;5032063;28;20224;-76
2023/08/17 02:39:12;;;;;;;8.82;4.90;;;;;;;21.93;79.89;95247.78;5049639;28;20236;-77
2023/08/17 02:41:37;;;;;;;9.13;5.18;;;;;;;21.97;79.67;95240.88;5034957;28;20271;-76
2023/08/17 02:44:03;;;;;;;8.95;5.00;;;;;;;21.96;79.67;95236.59;5049531;28;20240;-77
2023/08/17 02:46:28;;;;;;;7.80;5.00;;;;;;;21.86;79.89;95242.69;5064363;28;20228;-76
2023/08/17 02:48:54;;;;;;;8.15;4.80;;;;;;;21.88;79.30;95245.09;5021727;28;20235;-75
2023/08/17 02:51:19;;;;;;;10.98;4.75;;;;;;;21.82;78.65;95243.44;5067191;28;20778;-77
2023/08/17 02:53:45;;;;;;;7.75;4.80;;;;;;;21.87;78.25;95238.97;5082952;28;20231;-76
2023/08/17 02:56:12;;;;;;;9.18;4.82;;;;;;;21.83;78.63;95245.84;5058794;28;20274;-77
2023/08/17 02:58:40;;;;;;;10.35;4.72;;;;;;;21.80;78.38;95241.06;5083360;28;20232;-77
2023/08/17 03:01:09;;;;;;;13.30;4.80;;;;;;;21.77;78.71;95236.25;5023565;28;20229;-76
2023/08/17 03:03:34;;;;;;;9.50;4.40;;;;;;;21.77;78.78;95241.56;5031503;28;20224;-77
2023/08/17 03:06:04;;;;;;;10.43;4.80;;;;;;;21.76;78.67;95245.28;5014103;28;20228;-70
2023/08/17 03:08:30;;;;;;;8.75;4.45;;;;;;;21.72;78.70;95246.06;5068236;28;20223;-70
2023/08/17 03:10:55;;;;;;;6.20;4.28;;;;;;;21.57;78.94;95244.13;5020521;28;20247;-71
2023/08/17 03:13:21;;;;;;;11.57;4.82;;;;;;;21.62;79.13;95243.34;5032476;28;20323;-71
2023/08/17 03:15:46;;;;;;;11.10;4.72;;;;;;;21.67;78.94;95236.19;5066229;28;20251;-71
2023/08/17 03:18:12;;;;;;;9.55;4.70;;;;;;;21.63;79.01;95235.13;5082989;28;20231;-72
2023/08/17 03:20:37;;;;;;;8.38;4.40;;;;;;;21.66;78.93;95247.13;5059736;28;20227;-70
2023/08/17 03:23:06;;;;;;;8.10;4.65;;;;;;;21.65;78.38;95248.19;5055759;28;20223;-71
2023/08/17 03:25:32;;;;;;;8.30;4.85;;;;;;;21.64;78.82;95241.25;5045488;28;20232;-70
2023/08/17 03:27:59;;;;;;;10.30;4.72;;;;;;;21.60;78.63;95242.81;5073155;28;20774;-72
2023/08/17 03:30:24;;;;;;;8.98;4.82;;;;;;;21.55;79.18;95243.59;5057941;28;20705;-71
2023/08/17 03:32:50;;;;;;;10.13;5.00;;;;;;;21.53;78.90;95245.72;5018538;28;20221;-71
2023/08/17 03:35:26;;;;;;;10.40;5.03;;;;;;;21.24;80.55;95242.66;5040561;28;20231;-71
2023/08/17 03:37:54;;;;;;;12.25;4.72;;;;;;;21.14;80.96;95245.25;5029672;28;20278;-72
2023/08/17 03:40:19;;;;;;;9.95;5.20;;;;;;;21.25;79.98;95244.25;5086665;28;20228;-70
2023/08/17 03:42:45;;;;;;;8.70;5.13;;;;;;;21.32;80.16;95250.16;5086314;28;20723;-72
2023/08/17 03:45:10;;;;;;;9.98;5.32;;;;;;;21.41;79.15;95251.28;5067717;28;20614;-71
2023/08/17 03:47:36;;;;;;;11.50;5.43;;;;;;;21.38;79.20;95248.31;5045731;28;20713;-71
2023/08/17 03:50:05;;;;;;;8.07;5.00;;;;;;;21.34;79.41;95258.69;5034040;28;20229;-72
2023/08/17 03:52:31;;;;;;;6.82;4.47;;;;;;;21.10;80.49;95244.16;5050267;28;20251;-76
2023/08/17 03:54:56;;;;;;;9.13;4.70;;;;;;;20.95;80.84;95253.84;5065089;28;20895;-78
2023/08/17 03:57:22;;;;;;;9.35;4.65;;;;;;;20.78;81.51;95248.69;5068769;28;20905;-76
2023/08/17 03:59:47;;;;;;;12.57;4.85;;;;;;;20.73;81.60;95256.63;5050357;28;20307;-77
2023/08/17 04:02:13;;;;;;;10.75;4.93;;;;;;;20.66;81.65;95248.03;5034013;28;20496;-76
2023/08/17 04:04:38;;;;;;;8.48;4.78;;;;;;;20.71;81.79;95254.22;5050640;28;20236;-76
2023/08/17 04:07:04;;;;;;;9.13;5.00;;;;;;;21.05;80.44;95252.09;5020268;28;20236;-75
2023/08/17 04:09:30;;;;;;;8.65;5.03;;;;;;;21.09;80.65;95253.19;5034052;28;20228;-77
2023/08/17 04:11:57;;;;;;;11.55;5.50;;;;;;;20.99;81.87;95262.94;5035039;28;20232;-75
2023/08/17 04:14:22;;;;;;;9.55;5.10;;;;;;;20.90;82.38;95253.84;5049917;28;20282;-76
2023/08/17 04:16:48;;;;;;;14.43;5.45;;;;;;;20.85;82.05;95254.59;5054964;28;20219;-76
2023/08/17 04:19:14;;;;;;;12.15;5.65;;;;;;;20.63;82.92;95254.72;5087040;28;20243;-77
2023/08/17 04:21:39;;;;;;;13.35;5.45;;;;;;;20.63;83.54;95249.38;5036405;28;20246;-76
2023/08/17 04:24:05;;;;;;;9.57;5.70;;;;;;;20.56;83.60;95255.97;5043403;28;20807;-76
2023/08/17 04:26:31;;;;;;;11.32;5.38;;;;;;;20.53;83.97;95259.94;5057770;28;20698;-77
2023/08/17 04:28:57;;;;;;;9.60;4.97;;;;;;;20.47;84.10;95258.25;5054198;28;20258;-76
2023/08/17 04:31:22;;;;;;;12.35;5.47;;;;;;;20.36;85.29;95255.78;5052750;28;20232;-76
2023/08/17 04:33:48;;;;;;;13.83;5.50;;;;;;;20.42;85.38;95254.78;5034342;28;20712;-77
2023/08/17 04:36:13;;;;;;;11.27;5.10;;;;;;;20.45;85.79;95257.72;5067231;28;20238;-75
2023/08/17 04:38:40;;;;;;;11.95;5.15;;;;;;;20.65;85.08;95252.59;5026944;28;20878;-76
2023/08/17 04:41:06;;;;;;;13.73;5.18;;;;;;;20.68;85.47;95256.59;5032400;28;20244;-77
2023/08/17 04:43:32;;;;;;;9.10;5.50;;;;;;;20.72;85.58;95260.34;5065945;28;20238;-76
2023/08/17 04:45:58;;;;;;;16.30;7.60;;;;;;;20.63;86.16;95260.03;5051444;28;20904;-73
2023/08/17 04:48:24;;;;;;;15.73;6.63;;;;;;;20.76;85.78;95258.78;5049106;28;20429;-69
2023/08/17 04:50:50;;;;;;;13.35;5.90;;;;;;;20.75;85.16;95254.53;5086844;28;20326;-76
2023/08/17 04:53:16;;;;;;;14.93;6.50;;;;;;;20.91;84.62;95258.91;5085636;28;20251;-77
2023/08/17 04:55:42;;;;;;;12.52;5.93;;;;;;;20.91;84.20;95261.56;5086556;28;20251;-75
2023/08/17 04:58:07;;;;;;;12.60;6.07;;;;;;;20.82;84.94;95255.13;5044666;28;20296;-71
2023/08/17 05:00:33;;;;;;;11.98;5.82;;;;;;;20.85;84.68;95259.13;5055435;28;20235;-71
2023/08/17 05:02:59;;;;;;;11.32;5.60;;;;;;;20.90;84.33;95246.63;5087321;28;20220;-72
2023/08/17 05:05:25;;;;;;;11.68;5.93;;;;;;;20.93;84.40;95256.78;5066782;28;20273;-76
2023/08/17 05:07:52;;;;;;;11.90;5.60;;;;;;;21.14;83.27;95257.75;5036582;28;20364;-76
2023/08/17 05:10:17;;;;;;;11.48;5.22;;;;;;;21.34;81.14;95261.34;5057132;28;20294;-76
2023/08/17 05:12:43;;;;;;;11.90;5.57;;;;;;;22.00;79.26;95259.78;5038542;28;20232;-75
2023/08/17 05:15:09;;;;;;;13.68;5.00;;;;;;;23.15;73.69;95260.19;5036848;28;20720;-75
2023/08/17 05:17:35;;;;;;;10.77;5.10;;;;;;;22.66;76.44;95266.06;5058483;28;20971;-76
2023/08/17 05:20:00;;;;;;;11.32;5.20;;;;;;;22.10;78.67;95259.03;5033659;28;20236;-77
2023/08/17 05:22:27;;;;;;;15.77;5.45;;;;;;;22.33;77.21;95261.19;5023260;28;20232;-76
2023/08/17 05:24:52;;;;;;;11.98;5.38;;;;;;;22.13;78.46;95264.66;5037406;28;20267;-75
2023/08/17 05:27:18;;;;;;;14.27;5.50;;;;;;;22.07;78.09;95262.22;5043587;28;20228;-76
2023/08/17 05:29:43;;;;;;;14.48;5.03;;;;;;;21.98;79.23;95259.25;5052220;28;20256;-76
2023/08/17 05:32:09;;;;;;;8.60;4.93;;;;;;;21.91;80.59;95258.72;5050371;28;20235;-78
2023/08/17 05:34:35;;;;;;;8.10;4.80;;;;;;;22.04;79.93;95265.41;5037785;28;20292;-77
2023/08/17 05:37:00;;;;;;;9.43;4.85;;;;;;;22.01;80.53;95266.75;5038560;28;20220;-78
2023/08/17 05:39:26;;;;;;;10.10;4.50;;;;;;;22.14;79.33;95263.56;5041938;28;20228;-77
2023/08/17 05:41:51;;;;;;;10.95;4.88;;;;;;;22.99;75.97;95262.09;5047256;28;20234;-79
2023/08/17 05:44:17;;;;;;;10.23;4.97;;;;;;;23.37;75.20;95266.88;5068006;28;20289;-78
2023/08/17 05:46:43;;;;;;;11.60;4.80;;;;;;;23.33;74.86;95255.09;5045159;28;20285;-79
2023/08/17 05:49:09;;;;;;;13.63;4.80;;;;;;;22.99;76.01;95263.97;5015456;28;20233;-78
2023/08/17 05:51:34;;;;;;;9.52;4.57;;;;;;;23.02;74.86;95261.56;5054513;28;20734;-78
2023/08/17 05:54:00;;;;;;;9.32;4.40;;;;;;;23.04;74.74;95263.97;5033031;28;20641;-79
2023/08/17 05:56:25;;;;;;;7.25;4.20;;;;;;;23.14;73.14;95261.28;5037359;28;20231;-78
2023/08/17 05:58:51;;;;;;;6.70;4.00;;;;;;;23.17;72.04;95266.88;5047294;28;20228;-80
2023/08/17 06:01:16;;;;;;;8.15;4.38;;;;;;;23.24;72.68;95269.25;5036839;28;20659;-79
2023/08/17 06:03:42;;;;;;;12.02;4.85;;;;;;;23.16;73.89;95270.63;5052019;28;20235;-79
2023/08/17 06:06:09;;;;;;;9.85;5.38;;;;;;;23.25;75.11;95265.53;5036582;28;20308;-79
2023/08/17 06:08:35;;;;;;;15.05;5.80;;;;;;;23.37;76.28;95263.41;5052844;28;20800;-76
2023/08/17 06:11:00;;;;;;;11.30;6.07;;;;;;;23.37;77.63;95271.41;5035509;28;20242;-75
2023/08/17 06:13:26;;;;;;;8.82;6.38;;;;;;;23.38;78.72;95271.13;5038533;28;20235;-75
2023/08/17 06:15:51;;;;;;;15.68;7.00;;;;;;;23.54;79.02;95265.75;5035564;28;20907;-76
2023/08/17 06:18:17;;;;;;;14.98;7.35;;;;;;;23.62;80.17;95259.88;5050938;28;20221;-76
2023/08/17 06:20:42;;;;;;;11.20;7.47;;;;;;;23.64;80.56;95257.72;5050001;28;20228;-75
2023/08/17 06:23:08;;;;;;;13.13;7.05;;;;;;;23.68;79.42;95264.91;5047057;28;20216;-75
2023/08/17 06:25:34;;;;;;;12.35;7.22;;;;;;;23.70;79.75;95262.78;5051279;28;20224;-75
2023/08/17 06:28:00;;;;;;;10.95;6.85;;;;;;;23.75;78.84;95265.44;5050199;28;20611;-75
2023/08/17 06:30:25;;;;;;;8.85;5.40;;;;;;;23.80;74.33;95265.41;5048222;28;20239;-76
2023/08/17 06:32:51;;;;;;;12.00;5.10;;;;;;;23.85;73.89;95273.41;5050239;28;20689;-76
2023/08/17 06:35:17;;;;;;;11.45;5.03;;;;;;;23.92;74.88;95270.44;5075111;28;20320;-76
2023/08/17 06:37:43;;;;;;;10.50;5.38;;;;;;;24.00;74.01;95275.22;5028120;28;20240;-75
2023/08/17 06:40:09;;;;;;;11.43;5.28;;;;;;;24.06;73.71;95274.97;5023641;28;20679;-75
2023/08/17 06:42:34;;;;;;;13.68;5.78;;;;;;;24.10;74.63;95273.31;5044895;28;20698;-76
2023/08/17 06:45:00;;;;;;;9.88;5.45;;;;;;;24.09;74.96;95274.41;5033704;28;20228;-74
2023/08/17 06:47:25;;;;;;;11.77;5.35;;;;;;;24.14;74.09;95275.47;5032328;28;20220;-76
2023/08/17 06:49:51;;;;;;;11.90;5.20;;;;;;;24.15;72.79;95275.16;5066891;28;20315;-76
2023/08/17 06:52:17;;;;;;;8.45;5.45;;;;;;;24.22;72.82;95275.66;5032052;28;20229;-76
2023/08/17 06:54:42;;;;;;;12.73;5.70;;;;;;;24.36;72.63;95275.88;5047078;28;20228;-76
2023/08/17 06:57:08;;;;;;;12.95;5.70;;;;;;;24.44;72.40;95276.09;5042408;28;20217;-75
2023/08/17 06:59:33;;;;;;;15.57;5.60;;;;;;;24.44;72.84;95278.75;5042003;28;20287;-75
2023/08/17 07:01:59;;;;;;;10.30;5.95;;;;;;;24.61;72.24;95275.72;5016337;28;20595;-75
2023/08/17 07:04:25;;;;;;;13.60;6.50;;;;;;;24.73;71.76;95282.31;5027205;28;20249;-75
2023/08/17 07:06:51;;;;;;;12.75;6.53;;;;;;;24.72;70.95;95278.03;5029714;28;20233;-76
2023/08/17 07:09:16;;;;;;;11.60;5.70;;;;;;;24.71;70.42;95275.66;5018078;28;20241;-76
2023/08/17 07:11:42;;;;;;;10.48;5.88;;;;;;;24.71;70.67;95273.78;5015556;28;20485;-75
2023/08/17 07:14:07;;;;;;;8.43;5.78;;;;;;;24.77;70.26;95272.69;5028751;28;20221;-76
2023/08/17 07:16:33;;;;;;;9.30;5.40;;;;;;;24.83;69.93;95275.31;5029641;28;20670;-74
2023/08/17 07:18:59;;;;;;;7.07;5.50;;;;;;;24.98;67.34;95275.22;5032607;28;20747;-75
2023/08/17 07:21:25;;;;;;;7.50;4.80;;;;;;;25.13;66.14;95270.50;5032195;28;20232;-75
2023/08/17 07:23:50;;;;;;;10.18;5.45;;;;;;;25.18;66.69;95272.34;5004834;28;20248;-75
2023/08/17 07:26:18;;;;;;;9.48;4.80;;;;;;;25.14;66.01;95268.63;5026402;28;20660;-76
2023/08/17 07:28:44;;;;;;;12.00;5.50;;;;;;;25.21;64.72;95275.25;5042668;28;20261;-75
2023/08/17 07:31:10;;;;;;;15.05;5.43;;;;;;;25.41;64.47;95274.28;5009945;28;20258;-74
2023/08/17 07:33:36;;;;;;;11.93;5.20;;;;;;;25.38;65.54;95272.97;5024482;28;20320;-76
2023/08/17 07:36:02;;;;;;;9.48;5.43;;;;;;;25.30;66.11;95268.22;4997451;28;20283;-76
2023/08/17 07:38:28;;;;;;;10.93;4.10;;;;;;;25.46;59.72;95266.19;5031432;28;20256;-75
2023/08/17 07:40:54;;;;;;;8.73;4.45;;;;;;;25.58;60.97;95276.56;5017307;28;20249;-75
2023/08/17 07:43:20;;;;;;;10.32;4.78;;;;;;;25.68;63.33;95273.72;5009255;28;20237;-75
2023/08/17 07:45:45;;;;;;;7.65;5.25;;;;;;;25.52;63.67;95270.44;5014360;28;20248;-76
2023/08/17 07:48:11;;;;;;;9.40;5.38;;;;;;;25.51;63.52;95266.16;5028348;28;20630;-75
2023/08/17 07:50:36;;;;;;;9.68;5.05;;;;;;;25.52;63.33;95269.63;5004043;28;20229;-75
2023/08/17 07:53:02;;;;;;;13.32;6.57;;;;;;;25.56;63.38;95267.97;5009947;28;20227;-75
2023/08/17 07:55:28;;;;;;;8.23;5.00;;;;;;;25.82;61.54;95269.28;5044381;28;20710;-76
2023/08/17 07:57:53;;;;;;;7.18;5.13;;;;;;;25.94;62.03;95272.34;5007420;28;20257;-72
2023/08/17 08:00:19;;;;;;;9.70;5.15;;;;;;;25.99;61.51;95265.06;5018903;28;20324;-72
2023/08/17 08:02:46;;;;;;;8.68;4.47;;;;;;;26.16;60.13;95263.81;5013414;28;20713;-71
2023/08/17 08:05:14;;;;;;;9.32;4.88;;;;;;;26.19;60.79;95266.72;5033592;28;20929;-72
2023/08/17 08:07:39;;;;;;;10.23;4.78;;;;;;;26.24;60.60;95258.59;5037794;28;20228;-71
2023/08/17 08:10:05;;;;;;;8.00;4.50;;;;;;;26.38;58.43;95258.69;5035540;28;20253;-73
2023/08/17 08:12:31;;;;;;;7.13;4.05;;;;;;;26.37;59.31;95251.69;5036428;28;20621;-71
2023/08/17 08:14:56;;;;;;;8.73;4.10;;;;;;;26.42;60.67;95249.75;5054746;28;20235;-73
2023/08/17 08:17:22;;;;;;;11.70;4.55;;;;;;;26.49;59.30;95252.88;5050209;28;20875;-70
2023/08/17 08:19:47;;;;;;;7.78;4.20;;;;;;;26.67;58.49;95249.38;5056737;28;20220;-69
2023/08/17 08:22:13;;;;;;;8.07;3.80;;;;;;;26.84;56.83;95248.09;5050540;28;21001;-72
2023/08/17 08:24:40;;;;;;;8.27;3.80;;;;;;;26.85;55.97;95250.47;5067741;28;20227;-71
2023/08/17 08:27:06;;;;;;;6.32;3.95;;;;;;;26.91;57.37;95246.63;5070098;28;20224;-71
2023/08/17 08:29:32;;;;;;;5.38;4.07;;;;;;;26.98;55.80;95244.34;5073408;28;20761;-74
2023/08/17 08:31:59;;;;;;;11.43;4.25;;;;;;;26.97;56.97;95248.13;5033024;28;20421;-72
2023/08/17 08:34:25;;;;;;;7.40;4.13;;;;;;;27.11;55.95;95242.78;5053309;28;20281;-72
2023/08/17 08:36:50;;;;;;;7.75;4.50;;;;;;;27.19;56.05;95250.16;5049885;28;20224;-71
2023/08/17 08:39:16;;;;;;;7.88;4.32;;;;;;;27.43;55.75;95245.47;5054437;28;20229;-71
2023/08/17 08:41:41;;;;;;;7.18;4.25;;;;;;;27.40;56.03;95251.44;5051823;28;20224;-75
2023/08/17 08:44:07;;;;;;;7.97;4.82;;;;;;;27.32;57.64;95244.03;5033364;28;20741;-76
2023/08/17 08:46:32;;;;;;;7.03;4.70;;;;;;;27.44;56.86;95243.59;5049817;28;20729;-74
2023/08/17 08:48:58;;;;;;;7.38;4.57;;;;;;;27.42;57.13;95243.88;5047262;28;20289;-76
2023/08/17 08:51:27;;;;;;;9.20;4.80;;;;;;;27.54;56.64;95225.34;5070444;28;20224;-75
2023/08/17 08:53:59;;;;;;;10.63;4.40;;;;;;;27.68;55.94;95236.91;5056801;28;20252;-75
2023/08/17 08:56:25;;;;;;;6.55;4.63;;;;;;;27.76;55.11;95238.91;5032857;28;20250;-76
2023/08/17 08:58:50;;;;;;;8.73;4.10;;;;;;;27.91;53.26;95235.94;5014297;28;20320;-75
2023/08/17 09:01:16;;;;;;;7.20;4.00;;;;;;;27.81;54.24;95232.63;5014708;28;20224;-75
2023/08/17 09:03:42;;;;;;;7.47;4.43;;;;;;;27.79;54.71;95221.38;5031149;28;20229;-76
2023/08/17 09:06:07;;;;;;;6.38;3.80;;;;;;;27.95;53.07;95225.34;5047722;28;20306;-75
2023/08/17 09:08:33;;;;;;;6.07;3.97;;;;;;;28.08;53.52;95223.78;5028886;28;20235;-76
2023/08/17 09:10:58;;;;;;;8.27;3.90;;;;;;;28.19;51.67;95223.25;5031387;28;20228;-76
2023/08/17 09:13:24;;;;;;;7.28;4.47;;;;;;;28.24;52.63;95222.34;5039534;28;20220;-74
2023/08/17 09:15:49;;;;;;;8.52;4.10;;;;;;;28.35;52.31;95218.34;5050668;28;20260;-75
2023/08/17 09:18:15;;;;;;;7.13;4.10;;;;;;;28.46;51.82;95212.41;5033879;28;20311;-77
2023/08/17 09:20:45;;;;;;;6.50;3.90;;;;;;;28.51;53.03;95211.50;5034081;28;20676;-76
2023/08/17 09:23:19;;;;;;;12.23;4.38;;;;;;;28.55;51.54;95205.19;5020453;28;20224;-75
2023/08/17 09:25:45;;;;;;;8.48;3.92;;;;;;;28.55;51.15;95202.50;5000298;28;20221;-76
2023/08/17 09:28:18;;;;;;;8.50;4.28;;;;;;;28.63;51.75;95209.09;5026472;28;20274;-76
2023/08/17 09:30:57;;;;;;;10.05;4.20;;;;;;;28.75;50.93;95212.03;5023893;28;20235;-75
2023/08/17 09:33:31;;;;;;;6.32;4.13;;;;;;;28.72;49.90;95206.44;5006370;28;20320;-76
2023/08/17 09:35:57;;;;;;;7.60;3.47;;;;;;;28.62;51.40;95196.72;5015585;28;20217;-75
2023/08/17 09:38:23;;;;;;;8.25;4.00;;;;;;;28.78;51.48;95197.16;5014684;28;20758;-75
2023/08/17 09:40:48;;;;;;;5.50;3.70;;;;;;;28.70;49.62;95190.59;5046070;28;20227;-76
2023/08/17 09:43:15;;;;;;;8.57;3.72;;;;;;;28.95;48.95;95189.94;5047994;28;20240;-75
2023/08/17 09:45:40;;;;;;;5.35;3.60;;;;;;;28.98;49.39;95178.56;5021158;28;20246;-75
2023/08/17 09:48:09;;;;;;;8.88;3.75;;;;;;;29.08;49.17;95188.28;5030626;28;21024;-75
2023/08/17 09:50:35;;;;;;;7.65;3.78;;;;;;;29.22;49.59;95189.81;5014854;28;20806;-76
2023/08/17 09:53:04;;;;;;;8.65;3.90;;;;;;;29.23;48.41;95180.63;5010007;28;20221;-75
2023/08/17 09:55:35;;;;;;;6.75;3.30;;;;;;;29.26;48.11;95168.41;5024426;28;20263;-76
2023/08/17 09:58:01;;;;;;;8.30;3.30;;;;;;;29.47;44.38;95176.78;5063952;28;20212;-76
2023/08/17 10:00:27;;;;;;;8.30;3.22;;;;;;;29.39;44.70;95177.53;5030970;28;20215;-76
2023/08/17 10:02:52;;;;;;;7.72;3.60;;;;;;;29.39;45.50;95172.13;5053591;28;20947;-76
2023/08/17 10:05:18;;;;;;;6.55;3.08;;;;;;;29.48;45.16;95160.25;5014925;28;20236;-76
2023/08/17 10:07:48;;;;;;;5.32;3.55;;;;;;;29.69;43.89;95176.66;5037990;28;20221;-76
2023/08/17 10:10:14;;;;;;;9.90;5.38;;;;;;;29.89;43.71;95170.72;5029665;28;20781;-76
2023/08/17 10:12:51;;;;;;;8.40;3.40;;;;;;;30.04;43.46;95172.97;5022046;28;20254;-76
2023/08/17 10:15:18;;;;;;;7.40;3.10;;;;;;;29.96;41.36;95171.06;5021953;28;20239;-74
2023/08/17 10:17:58;;;;;;;6.85;2.88;;;;;;;30.04;42.77;95167.59;5019123;28;20243;-75
2023/08/17 10:20:24;;;;;;;5.28;2.90;;;;;;;30.15;41.33;95158.06;5029170;28;20236;-76
2023/08/17 10:23:15;;;;;;;5.18;4.05;;;;;;;30.08;42.18;95157.72;5057290;28;20304;-75
2023/08/17 10:25:41;;;;;;;6.88;3.33;;;;;;;30.43;43.40;95153.16;5067933;28;20674;-75
2023/08/17 10:28:08;;;;;;;9.85;5.47;;;;;;;30.42;41.54;95160.50;5050690;28;20224;-75
2023/08/17 10:30:34;;;;;;;7.90;4.00;;;;;;;30.35;41.62;95153.97;5037492;28;20256;-75
2023/08/17 10:33:00;;;;;;;5.10;3.00;;;;;;;30.41;41.69;95156.19;5030855;28;20283;-75
2023/08/17 10:35:26;;;;;;;5.95;3.17;;;;;;;30.50;42.48;95158.88;5039692;28;20310;-75
2023/08/17 10:37:52;;;;;;;6.63;3.55;;;;;;;30.61;42.64;95155.56;5035858;28;20231;-76
2023/08/17 10:40:19;;;;;;;6.18;2.97;;;;;;;30.54;40.73;95152.53;5039259;28;20680;-75
2023/08/17 10:42:46;;;;;;;10.18;3.10;;;;;;;30.66;39.95;95157.28;5035365;28;20223;-75
2023/08/17 10:45:31;;;;;;;7.43;3.08;;;;;;;30.73;40.84;95159.50;5030893;28;20224;-76
2023/08/17 10:48:27;;;;;;;7.45;3.20;;;;;;;30.81;39.92;95156.78;5068088;28;20688;-75
2023/08/17 10:51:04;;;;;;;3.53;2.70;;;;;;;30.84;39.50;95158.03;5057000;28;20228;-75
2023/08/17 10:53:34;;;;;;;4.40;3.33;;;;;;;30.76;41.67;95150.75;5047907;28;20253;-77
2023/08/17 10:56:00;;;;;;;4.82;3.50;;;;;;;30.76;43.20;95146.16;5053248;28;20322;-77
2023/08/17 10:58:26;;;;;;;6.05;3.60;;;;;;;30.91;41.53;95136.75;5071861;28;20880;-76
2023/08/17 11:00:55;;;;;;;4.13;3.28;;;;;;;30.94;41.45;95136.91;5038996;28;20712;-76
2023/08/17 11:03:21;;;;;;;8.35;3.30;;;;;;;30.95;40.06;95138.50;5047278;28;20236;-75
2023/08/17 11:05:55;;;;;;;4.85;3.22;;;;;;;30.94;40.16;95136.91;5071936;28;20226;-75
2023/08/17 11:08:22;;;;;;;5.95;3.10;;;;;;;30.99;39.34;95138.63;5052573;28;20741;-75
2023/08/17 11:11:11;;;;;;;5.05;3.20;;;;;;;31.01;39.81;95123.69;5051582;28;20292;-75
2023/08/17 11:13:38;;;;;;;5.32;3.40;;;;;;;31.06;41.94;95130.81;5057333;28;20228;-76
2023/08/17 11:16:05;;;;;;;8.48;3.70;;;;;;;31.13;41.89;95131.13;5051000;28;20236;-76
2023/08/17 11:18:34;;;;;;;9.95;3.65;;;;;;;31.16;42.25;95133.19;5054629;28;20371;-77
2023/08/17 11:21:00;;;;;;;6.25;3.78;;;;;;;31.21;41.33;95124.88;5018252;28;20231;-76
2023/08/17 11:23:28;;;;;;;11.80;4.40;;;;;;;31.25;40.31;95131.22;5038003;28;20220;-76
2023/08/17 11:25:54;;;;;;;6.72;3.90;;;;;;;31.31;41.46;95129.94;5040678;28;20260;-75
2023/08/17 11:28:19;;;;;;;7.05;3.35;;;;;;;31.23;41.43;95126.16;5068617;28;20232;-76